Terminal Aerodrome Forecast
Issued by NWS Buffalo, NY

Home | Current Version | Previous Version | Text Only | Print | Product List | Glossary On
Versions: 1 2 3 4 5 6 7 8 9 10 11 12 13 14 15 16 17 18 19 20 21 22 23 24 25 26
406
FTUS41 KBUF 202134 AAA
TAFBUF
TAF AMD
KBUF 202134Z 2022/2118 15004KT 3SM BR VCSH OVC005
     FM210100 19005KT 3SM BR VCSH OVC012
     FM210500 23007KT 2SM -DZ BR OVC003
     FM211300 VRB03KT P6SM OVC003
     FM211700 14004KT P6SM OVC007=

USA.gov is the U.S. government's official web portal to all federal, state and local government web resources and services.